Time;durP1;ratioP1;P1;durP2;ratioP2;P2;SDS_P1;SDS_P2;PMS_P1;PMS_P2;Temp;Humidity;BMP_temperature;BMP_pressure;BME280_temperature;BME280_humidity;BME280_pressure;Samples;Min_cycle;Max_cycle;Signal;HPM_P1;HPM_P2
2023/04/08 00:01:41;;;;;;;13.48;8.77;;;7.40;99.90;;;;;;5017117;28;20112;-69
2023/04/08 00:04:08;;;;;;;13.38;9.57;;;7.50;99.90;;;;;;5030231;28;20033;-69
2023/04/08 00:06:34;;;;;;;16.52;10.55;;;7.50;99.90;;;;;;5030666;28;20028;-68
2023/04/08 00:08:59;;;;;;;14.23;10.07;;;7.40;99.90;;;;;;5016959;28;20116;-69
2023/04/08 00:11:25;;;;;;;15.00;9.65;;;7.50;99.90;;;;;;5018316;28;20545;-69
2023/04/08 00:13:51;;;;;;;13.30;9.70;;;7.50;99.90;;;;;;5026013;28;20085;-69
2023/04/08 00:16:17;;;;;;;15.50;10.85;;;7.40;99.90;;;;;;5018059;28;20488;-69
2023/04/08 00:18:42;;;;;;;18.55;10.57;;;7.50;99.90;;;;;;5018155;28;20473;-69
2023/04/08 00:21:08;;;;;;;16.85;11.45;;;7.40;99.90;;;;;;5015471;28;20512;-69
2023/04/08 00:23:34;;;;;;;14.75;10.77;;;7.50;99.90;;;;;;5025647;28;20037;-69
2023/04/08 00:25:59;;;;;;;17.42;12.30;;;7.40;99.90;;;;;;5033340;28;20124;-69
2023/04/08 00:28:25;;;;;;;17.25;11.73;;;7.40;99.90;;;;;;5035708;28;20389;-69
2023/04/08 00:30:52;;;;;;;18.27;12.35;;;7.40;99.90;;;;;;5042654;28;20477;-69
2023/04/08 00:33:17;;;;;;;19.08;12.50;;;7.40;99.90;;;;;;5021226;28;20034;-69
2023/04/08 00:35:43;;;;;;;18.35;12.02;;;7.40;99.90;;;;;;5028879;28;20025;-69
2023/04/08 00:38:09;;;;;;;22.00;13.95;;;7.40;99.90;;;;;;5034655;28;20030;-68
2023/04/08 00:40:34;;;;;;;20.63;14.23;;;7.40;99.90;;;;;;5026598;28;20464;-69
2023/04/08 00:43:00;;;;;;;22.88;13.40;;;7.40;99.90;;;;;;5044830;28;20176;-68
2023/04/08 00:45:26;;;;;;;24.45;14.77;;;7.40;99.90;;;;;;5031685;28;20115;-68
2023/04/08 00:47:52;;;;;;;22.08;13.68;;;7.30;99.90;;;;;;5017486;28;20029;-68
2023/04/08 00:50:19;;;;;;;24.10;16.17;;;7.30;99.90;;;;;;5033750;28;20167;-68
2023/04/08 00:52:45;;;;;;;23.85;15.50;;;7.30;99.90;;;;;;5024971;28;20029;-69
2023/04/08 00:55:10;;;;;;;23.92;14.93;;;7.30;99.90;;;;;;5038861;28;20547;-68
2023/04/08 00:57:36;;;;;;;24.52;15.88;;;7.30;99.90;;;;;;5021704;28;20048;-69
2023/04/08 01:00:06;;;;;;;26.10;17.17;;;7.30;99.90;;;;;;5032703;28;20045;-69
2023/04/08 01:02:44;;;;;;;26.33;16.52;;;7.30;99.90;;;;;;5030793;28;20079;-68
2023/04/08 01:05:18;;;;;;;26.95;16.55;;;7.30;99.90;;;;;;5018440;28;20044;-69
2023/04/08 01:07:47;;;;;;;25.63;16.40;;;7.30;99.90;;;;;;5020546;28;20442;-69
2023/04/08 01:10:23;;;;;;;28.75;15.68;;;7.30;99.90;;;;;;5039786;28;20048;-69
2023/04/08 01:12:58;;;;;;;26.60;16.73;;;7.30;99.90;;;;;;5035119;28;20037;-69
2023/04/08 01:15:27;;;;;;;28.08;16.70;;;7.30;99.90;;;;;;5022477;28;20048;-69
2023/04/08 01:17:55;;;;;;;29.33;17.50;;;7.30;99.90;;;;;;5030732;28;20037;-69
2023/04/08 01:20:25;;;;;;;28.05;17.10;;;7.30;99.90;;;;;;5024260;28;20028;-69
2023/04/08 01:23:20;;;;;;;24.52;15.82;;;7.30;99.90;;;;;;5015634;28;20034;-69
2023/04/08 01:25:49;;;;;;;31.35;16.85;;;7.30;99.90;;;;;;5014739;28;20030;-70
2023/04/08 01:28:18;;;;;;;30.10;19.17;;;7.30;99.90;;;;;;5024621;28;20075;-70
2023/04/08 01:30:45;;;;;;;31.27;18.38;;;7.20;99.90;;;;;;5022832;28;20073;-70
2023/04/08 01:33:13;;;;;;;27.73;17.48;;;7.20;99.90;;;;;;5023087;28;20061;-70
2023/04/08 01:35:39;;;;;;;31.77;18.65;;;7.20;99.90;;;;;;5013423;28;20398;-69
2023/04/08 01:38:07;;;;;;;36.42;17.60;;;7.20;99.90;;;;;;5022057;28;20025;-69
2023/04/08 01:40:34;;;;;;;29.55;16.67;;;7.20;99.90;;;;;;5022589;28;20030;-69
2023/04/08 01:43:02;;;;;;;28.75;17.48;;;7.30;99.90;;;;;;5024377;28;20026;-69
2023/04/08 01:45:29;;;;;;;33.47;20.10;;;7.30;99.90;;;;;;5033753;28;20036;-69
2023/04/08 01:47:57;;;;;;;31.23;17.88;;;7.30;99.90;;;;;;5028685;28;20033;-69
2023/04/08 01:50:24;;;;;;;34.40;19.75;;;7.40;99.90;;;;;;5013036;28;20112;-69
2023/04/08 01:52:52;;;;;;;31.88;20.17;;;7.30;99.90;;;;;;5020100;28;20040;-69
2023/04/08 01:55:18;;;;;;;31.80;18.23;;;7.30;99.90;;;;;;5013826;28;20037;-69
2023/04/08 01:57:48;;;;;;;35.35;19.25;;;7.20;99.90;;;;;;5026956;28;20350;-69
2023/04/08 02:00:17;;;;;;;31.90;20.02;;;7.30;99.90;;;;;;5032261;28;20375;-69
2023/04/08 02:02:45;;;;;;;32.55;19.52;;;7.30;99.90;;;;;;5032957;28;20049;-69
2023/04/08 02:05:11;;;;;;;29.73;17.73;;;7.30;99.90;;;;;;5032711;28;20029;-69
2023/04/08 02:07:37;;;;;;;32.15;18.88;;;7.30;99.90;;;;;;5033827;28;20551;-69
2023/04/08 02:10:03;;;;;;;30.42;19.52;;;7.30;99.90;;;;;;5034035;28;20033;-69
2023/04/08 02:12:29;;;;;;;33.40;19.85;;;7.30;99.90;;;;;;5038050;28;20090;-69
2023/04/08 02:14:56;;;;;;;38.22;21.00;;;7.30;99.90;;;;;;5025884;28;20025;-69
2023/04/08 02:17:36;;;;;;;32.38;19.73;;;7.40;99.90;;;;;;5021812;28;20036;-69
2023/04/08 02:20:11;;;;;;;29.33;18.10;;;7.30;99.90;;;;;;5021676;28;20482;-69
2023/04/08 02:22:43;;;;;;;31.75;19.35;;;7.30;99.90;;;;;;5012723;28;20034;-69
2023/04/08 02:25:13;;;;;;;36.95;18.77;;;7.30;99.90;;;;;;5029770;28;20125;-69
2023/04/08 02:27:43;;;;;;;35.78;20.48;;;7.20;99.90;;;;;;5032497;28;20104;-68
2023/04/08 02:30:10;;;;;;;35.88;19.75;;;7.20;99.90;;;;;;5014965;28;20040;-68
2023/04/08 02:32:37;;;;;;;35.22;18.95;;;7.20;99.90;;;;;;5028988;28;20087;-69
2023/04/08 02:35:04;;;;;;;35.78;20.63;;;7.10;99.90;;;;;;5017354;28;20033;-68
2023/04/08 02:37:33;;;;;;;37.70;21.42;;;7.10;99.90;;;;;;5024893;28;20108;-69
2023/04/08 02:39:59;;;;;;;37.72;20.70;;;7.10;99.90;;;;;;5019108;28;20026;-69
2023/04/08 02:42:25;;;;;;;37.15;21.95;;;7.10;99.90;;;;;;5011387;28;20026;-68
2023/04/08 02:44:51;;;;;;;34.83;19.75;;;7.10;99.90;;;;;;5029812;28;20118;-69
2023/04/08 02:47:16;;;;;;;32.63;19.75;;;7.10;99.90;;;;;;5022758;28;20026;-69
2023/04/08 02:49:42;;;;;;;35.50;20.25;;;7.20;99.90;;;;;;5018346;28;20560;-69
2023/04/08 02:52:08;;;;;;;41.45;20.15;;;7.20;99.90;;;;;;5024305;28;20096;-69
2023/04/08 02:54:34;;;;;;;33.47;20.60;;;7.20;99.90;;;;;;5024765;28;20022;-68
2023/04/08 02:56:59;;;;;;;39.75;21.52;;;7.20;99.90;;;;;;5011620;28;20033;-68
2023/04/08 02:59:25;;;;;;;40.30;22.10;;;7.20;99.90;;;;;;5029672;28;20046;-69
2023/04/08 03:01:50;;;;;;;33.17;19.08;;;7.20;99.90;;;;;;5020370;28;20052;-69
2023/04/08 03:04:16;;;;;;;39.92;21.33;;;7.20;99.90;;;;;;5043863;28;20112;-70
2023/04/08 03:06:41;;;;;;;32.38;18.67;;;7.20;99.90;;;;;;5035239;28;20501;-69
2023/04/08 03:09:07;;;;;;;34.45;19.75;;;7.20;99.90;;;;;;5012205;28;20029;-69
2023/04/08 03:11:33;;;;;;;42.22;22.35;;;7.20;99.90;;;;;;5014216;28;20021;-69
2023/04/08 03:13:59;;;;;;;33.65;20.05;;;7.20;99.90;;;;;;5024224;28;20033;-69
2023/04/08 03:16:24;;;;;;;37.53;20.65;;;7.20;99.90;;;;;;5027101;28;20033;-69
2023/04/08 03:18:50;;;;;;;38.10;21.55;;;7.20;99.90;;;;;;5015234;28;20029;-69
2023/04/08 03:21:16;;;;;;;39.00;20.40;;;7.20;99.90;;;;;;5036278;28;20082;-69
2023/04/08 03:23:42;;;;;;;39.50;20.40;;;7.10;99.90;;;;;;5022638;28;20388;-69
2023/04/08 03:26:08;;;;;;;39.22;21.52;;;7.20;99.90;;;;;;5015846;28;20105;-70
2023/04/08 03:28:33;;;;;;;37.17;20.20;;;7.20;99.90;;;;;;5013730;28;20033;-69
2023/04/08 03:31:02;;;;;;;41.92;22.27;;;7.20;99.90;;;;;;5012667;28;20132;-69
2023/04/08 03:33:27;;;;;;;41.53;22.60;;;7.20;99.90;;;;;;5021646;28;20025;-70
2023/04/08 03:35:53;;;;;;;37.78;21.17;;;7.20;99.90;;;;;;5019842;28;20092;-70
2023/04/08 03:38:19;;;;;;;36.50;21.40;;;7.10;99.90;;;;;;5022658;28;20018;-69
2023/04/08 03:40:45;;;;;;;40.05;22.17;;;7.20;99.90;;;;;;5045675;28;20135;-69
2023/04/08 03:43:11;;;;;;;41.15;22.63;;;7.20;99.90;;;;;;5032685;28;20041;-69
2023/04/08 03:45:37;;;;;;;39.80;21.40;;;7.10;99.90;;;;;;5044368;28;20025;-69
2023/04/08 03:48:03;;;;;;;39.42;22.02;;;7.10;99.90;;;;;;5021043;28;20109;-69
2023/04/08 03:50:29;;;;;;;43.63;23.48;;;7.10;99.90;;;;;;5044975;28;20476;-69
2023/04/08 03:52:54;;;;;;;42.95;22.50;;;7.10;99.90;;;;;;5023932;28;20041;-69
2023/04/08 03:55:20;;;;;;;40.42;23.17;;;7.10;99.90;;;;;;5024969;28;20105;-69
2023/04/08 03:57:45;;;;;;;39.72;23.02;;;7.10;99.90;;;;;;5023051;28;20095;-69
2023/04/08 04:00:12;;;;;;;41.92;23.70;;;7.10;99.90;;;;;;5011543;28;20494;-69
2023/04/08 04:02:37;;;;;;;38.92;23.83;;;7.10;99.90;;;;;;5016738;28;20100;-69
2023/04/08 04:05:03;;;;;;;41.55;23.92;;;7.10;99.90;;;;;;5011760;28;20548;-68
2023/04/08 04:07:29;;;;;;;45.75;23.83;;;7.10;99.90;;;;;;5018869;28;20519;-69
2023/04/08 04:09:55;;;;;;;40.40;22.85;;;7.10;99.90;;;;;;5027204;28;20037;-68
2023/04/08 04:12:22;;;;;;;47.00;24.15;;;7.10;99.90;;;;;;5035018;28;20040;-69
2023/04/08 04:14:47;;;;;;;46.55;23.98;;;7.10;99.90;;;;;;5026999;28;20474;-69
2023/04/08 04:17:13;;;;;;;40.67;23.23;;;7.20;99.90;;;;;;5021717;28;20032;-69
2023/04/08 04:19:39;;;;;;;44.10;24.77;;;7.20;99.90;;;;;;5011356;28;20050;-67
2023/04/08 04:22:05;;;;;;;43.85;25.67;;;7.30;99.90;;;;;;5022298;28;20447;-65
2023/04/08 04:24:30;;;;;;;40.50;23.33;;;7.20;99.90;;;;;;5013817;28;20022;-67
2023/04/08 04:26:56;;;;;;;40.63;21.95;;;7.20;99.90;;;;;;5021563;28;20033;-67
2023/04/08 04:29:21;;;;;;;47.72;25.83;;;7.20;99.90;;;;;;5027164;28;20061;-69
2023/04/08 04:31:47;;;;;;;40.00;21.60;;;7.20;99.90;;;;;;5021104;28;20040;-69
2023/04/08 04:34:13;;;;;;;43.05;24.70;;;7.20;99.90;;;;;;5018891;28;20116;-69
2023/04/08 04:36:38;;;;;;;45.15;25.52;;;7.20;99.90;;;;;;5014109;28;20030;-71
2023/04/08 04:39:04;;;;;;;47.72;25.60;;;7.20;99.90;;;;;;5014480;28;20108;-72
2023/04/08 04:41:30;;;;;;;43.10;25.13;;;7.30;99.90;;;;;;5015741;28;20045;-72
2023/04/08 04:43:55;;;;;;;40.55;24.00;;;7.30;99.90;;;;;;5021755;28;20390;-72
2023/04/08 04:46:21;;;;;;;40.92;22.88;;;7.20;99.90;;;;;;5031182;28;20029;-72
2023/04/08 04:48:47;;;;;;;42.63;22.67;;;7.30;99.90;;;;;;5035053;28;20030;-72
2023/04/08 04:51:12;;;;;;;43.53;23.27;;;7.30;99.90;;;;;;5029282;28;20025;-72
2023/04/08 04:53:38;;;;;;;42.10;25.05;;;7.30;99.90;;;;;;5022384;28;20033;-72
2023/04/08 04:56:03;;;;;;;42.15;25.70;;;7.40;99.90;;;;;;5023401;28;20470;-72
2023/04/08 04:58:29;;;;;;;47.45;26.65;;;7.40;99.90;;;;;;5011074;28;20060;-72
2023/04/08 05:00:55;;;;;;;43.95;23.20;;;7.40;99.90;;;;;;5032869;28;20149;-75
2023/04/08 05:03:21;;;;;;;44.00;24.23;;;7.40;99.90;;;;;;5030292;28;20029;-74
2023/04/08 05:05:51;;;;;;;43.17;23.23;;;7.40;99.90;;;;;;5017533;28;20034;-75
2023/04/08 05:08:17;;;;;;;46.33;25.20;;;7.40;99.90;;;;;;5018529;28;20060;-74
2023/04/08 05:10:42;;;;;;;46.92;26.45;;;7.40;99.90;;;;;;5033099;28;20052;-75
2023/04/08 05:13:08;;;;;;;42.63;24.42;;;7.40;99.90;;;;;;5034955;28;20370;-73
2023/04/08 05:15:34;;;;;;;47.10;25.38;;;7.40;99.90;;;;;;5040151;28;20033;-74
2023/04/08 05:18:00;;;;;;;45.17;25.33;;;7.40;99.90;;;;;;5034270;28;20555;-73
2023/04/08 05:20:25;;;;;;;49.58;26.83;;;7.40;99.90;;;;;;5029628;28;20113;-74
2023/04/08 05:22:51;;;;;;;42.50;25.92;;;7.50;99.90;;;;;;5027480;28;20101;-74
2023/04/08 05:25:16;;;;;;;46.80;26.77;;;7.40;99.90;;;;;;5027215;28;20029;-75
2023/04/08 05:27:42;;;;;;;50.55;27.48;;;7.40;99.90;;;;;;5035617;28;20021;-73
2023/04/08 05:30:08;;;;;;;46.95;26.80;;;7.40;99.90;;;;;;5031138;28;20030;-73
2023/04/08 05:32:34;;;;;;;47.50;25.50;;;7.50;99.90;;;;;;5026958;28;20030;-72
2023/04/08 05:35:02;;;;;;;45.40;27.02;;;7.50;99.90;;;;;;5020539;28;20477;-71
2023/04/08 05:37:28;;;;;;;43.75;27.05;;;7.60;99.90;;;;;;5027900;28;20032;-72
2023/04/08 05:39:53;;;;;;;43.85;24.85;;;7.60;99.90;;;;;;5023254;28;20026;-72
2023/04/08 05:42:19;;;;;;;49.58;26.73;;;7.60;99.90;;;;;;5022734;28;20471;-72
2023/04/08 05:44:44;;;;;;;44.88;25.63;;;7.60;99.90;;;;;;5036741;28;20041;-72
2023/04/08 05:47:10;;;;;;;47.42;28.45;;;7.60;99.90;;;;;;5035287;28;20481;-72
2023/04/08 05:49:36;;;;;;;47.92;27.17;;;7.60;99.90;;;;;;5032934;28;20068;-71
2023/04/08 05:52:02;;;;;;;48.92;26.20;;;7.70;99.90;;;;;;5018253;28;20041;-73
2023/04/08 05:54:28;;;;;;;50.50;28.15;;;7.70;99.90;;;;;;5016190;28;20058;-72
2023/04/08 05:56:54;;;;;;;50.00;27.15;;;7.70;99.90;;;;;;5027644;28;20033;-73
2023/04/08 05:59:19;;;;;;;52.67;28.05;;;7.70;99.90;;;;;;5023986;28;20037;-72
2023/04/08 06:01:45;;;;;;;47.67;26.98;;;7.70;99.90;;;;;;5012467;28;20048;-72
2023/04/08 06:04:11;;;;;;;48.03;26.30;;;7.80;99.90;;;;;;5013148;28;20072;-72
2023/04/08 06:06:38;;;;;;;49.03;26.58;;;7.70;99.90;;;;;;5013205;28;20040;-72
2023/04/08 06:09:04;;;;;;;45.22;26.80;;;7.70;99.90;;;;;;5021884;28;20057;-72
2023/04/08 06:11:30;;;;;;;49.40;27.48;;;7.80;99.90;;;;;;5016001;28;20486;-72
2023/04/08 06:13:55;;;;;;;45.00;26.92;;;7.80;99.90;;;;;;5022180;28;20049;-72
2023/04/08 06:16:21;;;;;;;47.78;28.17;;;7.80;99.90;;;;;;5012851;28;20497;-72
2023/04/08 06:18:47;;;;;;;47.35;27.90;;;8.00;99.90;;;;;;5019696;28;20040;-73
2023/04/08 06:21:13;;;;;;;46.95;25.85;;;8.00;99.90;;;;;;5018679;28;20030;-73
2023/04/08 06:23:38;;;;;;;49.42;27.58;;;8.00;99.90;;;;;;5029786;28;20036;-72
2023/04/08 06:26:04;;;;;;;47.10;28.73;;;8.00;99.90;;;;;;5020204;28;20042;-72
2023/04/08 06:28:30;;;;;;;48.00;26.98;;;8.00;99.90;;;;;;5013083;28;20030;-73
2023/04/08 06:30:56;;;;;;;50.50;27.33;;;8.10;99.90;;;;;;5016329;28;20053;-73
2023/04/08 06:33:21;;;;;;;45.67;26.02;;;8.10;99.90;;;;;;5031868;28;20026;-73
2023/04/08 06:35:47;;;;;;;46.47;26.13;;;8.00;99.90;;;;;;5012807;28;20025;-73
2023/04/08 06:38:13;;;;;;;44.38;26.25;;;8.10;99.90;;;;;;5013412;28;20033;-72
2023/04/08 06:40:39;;;;;;;51.10;28.98;;;8.20;99.90;;;;;;5014718;28;20462;-73
2023/04/08 06:43:06;;;;;;;47.72;28.67;;;8.20;99.90;;;;;;5018272;28;20034;-73
2023/04/08 06:45:32;;;;;;;49.38;28.92;;;8.20;99.90;;;;;;5023014;28;20030;-72
2023/04/08 06:47:58;;;;;;;51.17;29.45;;;8.20;99.90;;;;;;5027906;28;20058;-73
2023/04/08 06:50:23;;;;;;;52.97;28.15;;;8.20;99.90;;;;;;5014528;28;20119;-74
2023/04/08 06:52:49;;;;;;;52.50;26.80;;;8.20;99.90;;;;;;5018984;28;20220;-73
2023/04/08 06:55:15;;;;;;;48.85;27.58;;;8.20;99.90;;;;;;5025760;28;20036;-73
2023/04/08 06:57:41;;;;;;;47.92;27.55;;;8.30;99.90;;;;;;5015044;28;20029;-73
2023/04/08 07:00:07;;;;;;;52.30;29.50;;;8.30;99.90;;;;;;5026276;28;20044;-73
2023/04/08 07:02:33;;;;;;;48.30;27.52;;;8.20;99.90;;;;;;5022944;28;20018;-73
2023/04/08 07:04:59;;;;;;;51.25;27.15;;;8.30;99.90;;;;;;5005424;28;20026;-73
2023/04/08 07:07:25;;;;;;;46.78;27.80;;;8.30;99.90;;;;;;5017739;28;20112;-74
2023/04/08 07:09:50;;;;;;;50.05;27.77;;;8.30;99.90;;;;;;5015224;28;20061;-73
2023/04/08 07:12:16;;;;;;;43.65;26.50;;;8.40;99.90;;;;;;5024902;28;20068;-73
2023/04/08 07:14:42;;;;;;;43.88;24.83;;;8.50;99.90;;;;;;5013844;28;20394;-73
2023/04/08 07:17:07;;;;;;;46.20;27.23;;;8.60;99.90;;;;;;5011323;28;20049;-71
2023/04/08 07:19:33;;;;;;;45.92;26.85;;;8.70;99.90;;;;;;5012724;28;20030;-72
2023/04/08 07:21:59;;;;;;;46.33;27.40;;;8.70;99.90;;;;;;5020825;28;20496;-72
2023/04/08 07:24:25;;;;;;;42.13;24.77;;;8.70;99.90;;;;;;5022227;28;20504;-72
2023/04/08 07:26:51;;;;;;;46.10;26.52;;;8.80;99.90;;;;;;5014472;28;20026;-72
2023/04/08 07:29:16;;;;;;;39.80;25.42;;;8.90;99.90;;;;;;5014807;28;20272;-72
2023/04/08 07:31:43;;;;;;;45.60;25.90;;;9.00;99.90;;;;;;5026627;28;20444;-72
2023/04/08 07:34:09;;;;;;;41.80;26.33;;;9.00;99.90;;;;;;5012797;28;20030;-72
2023/04/08 07:36:35;;;;;;;43.78;27.52;;;9.10;99.90;;;;;;5022889;28;20387;-74
2023/04/08 07:39:01;;;;;;;42.75;25.55;;;9.20;99.90;;;;;;5015404;28;21327;-76
2023/04/08 07:41:27;;;;;;;42.45;23.95;;;9.10;99.90;;;;;;5027521;28;20036;-75
2023/04/08 07:43:52;;;;;;;41.90;24.95;;;9.10;99.90;;;;;;5021206;28;20109;-74
2023/04/08 07:46:19;;;;;;;40.28;23.85;;;9.10;99.90;;;;;;5015606;28;20064;-73
2023/04/08 07:48:44;;;;;;;43.78;24.83;;;9.10;99.90;;;;;;5014449;28;20021;-75
2023/04/08 07:51:10;;;;;;;43.58;24.55;;;9.10;99.90;;;;;;5011659;28;20045;-75
2023/04/08 07:53:36;;;;;;;39.30;25.05;;;9.20;99.90;;;;;;5020140;28;20117;-75
2023/04/08 07:56:04;;;;;;;40.00;22.33;;;9.20;99.90;;;;;;5032755;28;20481;-75
2023/04/08 07:58:31;;;;;;;40.17;24.35;;;9.20;99.90;;;;;;5018700;28;20104;-75
2023/04/08 08:00:57;;;;;;;42.97;24.63;;;9.30;99.90;;;;;;5016771;28;20057;-75
2023/04/08 08:03:23;;;;;;;44.63;25.80;;;9.40;99.90;;;;;;5018176;28;20040;-75
2023/04/08 08:05:48;;;;;;;42.40;25.90;;;9.40;99.90;;;;;;5022279;28;20029;-74
2023/04/08 08:08:14;;;;;;;37.88;23.05;;;9.50;99.90;;;;;;5023740;28;20029;-75
2023/04/08 08:10:40;;;;;;;38.15;23.90;;;9.50;99.90;;;;;;5025286;28;20061;-74
2023/04/08 08:13:07;;;;;;;35.65;22.45;;;9.50;99.90;;;;;;5032969;28;20049;-74
2023/04/08 08:15:33;;;;;;;35.95;22.58;;;9.60;99.90;;;;;;5027265;28;20029;-73
2023/04/08 08:17:58;;;;;;;37.80;24.38;;;9.70;99.90;;;;;;5024473;28;20154;-74
2023/04/08 08:20:24;;;;;;;39.80;24.80;;;9.80;99.90;;;;;;5009720;28;20026;-75
2023/04/08 08:22:50;;;;;;;40.35;23.63;;;9.90;99.90;;;;;;5026140;28;20036;-75
2023/04/08 08:25:16;;;;;;;42.92;24.92;;;9.90;99.90;;;;;;5017548;28;20029;-71
2023/04/08 08:27:42;;;;;;;39.33;24.30;;;10.00;99.90;;;;;;5014751;28;20073;-75
2023/04/08 08:30:08;;;;;;;39.03;24.95;;;10.00;99.90;;;;;;5023993;28;20066;-73
2023/04/08 08:32:34;;;;;;;39.50;23.60;;;10.00;99.90;;;;;;5016851;28;20046;-73
2023/04/08 08:35:00;;;;;;;34.28;21.13;;;10.00;99.90;;;;;;5011511;28;20318;-74
2023/04/08 08:37:26;;;;;;;41.25;24.85;;;9.90;99.90;;;;;;5032422;28;20033;-75
2023/04/08 08:39:52;;;;;;;40.65;23.20;;;9.90;99.90;;;;;;5027982;28;20419;-73
2023/04/08 08:42:22;;;;;;;39.25;24.70;;;10.00;99.90;;;;;;5040517;28;20029;-75
2023/04/08 08:44:48;;;;;;;40.20;24.25;;;10.00;99.90;;;;;;5016812;28;20037;-75
2023/04/08 08:47:17;;;;;;;38.35;24.02;;;10.00;99.90;;;;;;5014821;28;20120;-74
2023/04/08 08:49:43;;;;;;;36.88;22.50;;;10.10;99.90;;;;;;5039191;28;20053;-74
2023/04/08 08:52:10;;;;;;;38.28;23.38;;;10.10;99.90;;;;;;5015628;28;20099;-73
2023/04/08 08:54:36;;;;;;;37.60;23.10;;;10.10;99.90;;;;;;5034522;28;20051;-72
2023/04/08 08:57:02;;;;;;;36.10;21.95;;;10.10;99.90;;;;;;5034539;28;20113;-71
2023/04/08 08:59:27;;;;;;;33.03;21.63;;;10.20;99.90;;;;;;5035367;28;20123;-75
2023/04/08 09:01:53;;;;;;;33.60;21.23;;;10.20;99.90;;;;;;5048056;28;20033;-72
2023/04/08 09:04:21;;;;;;;36.63;23.75;;;10.20;99.90;;;;;;5046420;28;20400;-73
2023/04/08 09:07:07;;;;;;;35.28;21.92;;;10.20;99.90;;;;;;5031962;28;20038;-74
2023/04/08 09:09:50;;;;;;;36.03;22.35;;;10.20;99.90;;;;;;5016980;28;20162;-72
2023/04/08 09:12:15;;;;;;;34.30;22.08;;;10.20;99.90;;;;;;5017397;28;20117;-72
2023/04/08 09:14:41;;;;;;;32.63;20.48;;;10.20;99.90;;;;;;5024059;28;20037;-72
2023/04/08 09:17:07;;;;;;;39.83;24.33;;;10.20;99.90;;;;;;5014294;28;20030;-72
2023/04/08 09:19:32;;;;;;;39.53;23.33;;;10.10;99.90;;;;;;5027793;28;20155;-72
2023/04/08 09:22:06;;;;;;;37.90;23.65;;;10.10;99.90;;;;;;5022726;28;20018;-72
2023/04/08 09:24:32;;;;;;;36.35;23.67;;;10.10;99.90;;;;;;5033239;28;20029;-73
2023/04/08 09:26:58;;;;;;;36.80;23.42;;;10.00;99.90;;;;;;5026118;28;20025;-73
2023/04/08 09:29:27;;;;;;;38.15;24.13;;;10.00;99.90;;;;;;5026629;28;20024;-73
2023/04/08 09:31:57;;;;;;;40.28;25.25;;;10.00;99.90;;;;;;5022602;28;20093;-73
2023/04/08 09:34:24;;;;;;;38.13;24.00;;;10.00;99.90;;;;;;5018696;28;20446;-73
2023/04/08 09:36:51;;;;;;;37.90;24.15;;;10.00;99.90;;;;;;5018361;28;20034;-73
2023/04/08 09:39:17;;;;;;;33.45;21.65;;;10.00;99.90;;;;;;5037734;28;20030;-73
2023/04/08 09:41:44;;;;;;;38.00;22.33;;;10.00;99.90;;;;;;5016887;28;20493;-72
2023/04/08 09:44:11;;;;;;;35.25;22.77;;;10.00;99.90;;;;;;5033205;28;20029;-72
2023/04/08 09:46:42;;;;;;;31.17;19.60;;;10.00;99.90;;;;;;5016824;28;20959;-72
2023/04/08 09:49:35;;;;;;;33.42;21.67;;;10.10;99.90;;;;;;5019382;28;20450;-73
2023/04/08 09:52:10;;;;;;;38.47;23.98;;;10.10;99.90;;;;;;5014701;28;20049;-72
2023/04/08 09:54:48;;;;;;;;;;;10.20;99.90;;;;;;5014335;28;20044;-72
2023/04/08 09:57:55;;;;;;;29.40;18.88;;;10.20;99.90;;;;;;5027710;28;19915;-72
2023/04/08 10:00:27;;;;;;;33.95;20.45;;;10.30;99.90;;;;;;5028190;28;20099;-72
2023/04/08 10:02:59;;;;;;;32.90;22.02;;;10.50;99.90;;;;;;5023750;28;20112;-71
2023/04/08 10:05:25;;;;;;;31.95;20.98;;;10.50;99.90;;;;;;5042283;28;20029;-73
2023/04/08 10:07:52;;;;;;;31.35;20.77;;;10.70;99.90;;;;;;5025195;28;20208;-72
2023/04/08 10:10:18;;;;;;;34.97;19.90;;;10.80;99.90;;;;;;5020906;28;20036;-72
2023/04/08 10:12:44;;;;;;;32.70;21.30;;;10.80;99.90;;;;;;5016779;28;20486;-72
2023/04/08 10:15:30;;;;;;;30.80;21.67;;;10.80;99.90;;;;;;5024587;28;20033;-73
2023/04/08 10:18:19;;;;;;;33.67;19.95;;;10.90;99.90;;;;;;5025308;28;20053;-73
2023/04/08 10:20:46;;;;;;;33.05;21.92;;;11.00;99.90;;;;;;5017565;28;20109;-75
2023/04/08 10:23:12;;;;;;;32.78;22.42;;;11.00;99.90;;;;;;5034830;28;20033;-72
2023/04/08 10:25:42;;;;;;;33.30;20.90;;;11.10;99.90;;;;;;5042638;28;20025;-73
2023/04/08 10:28:10;;;;;;;28.73;18.50;;;11.20;99.90;;;;;;5027938;28;20111;-73
2023/04/08 10:30:46;;;;;;;29.35;18.65;;;11.30;99.90;;;;;;5019480;28;20051;-73
2023/04/08 10:33:16;;;;;;;30.25;19.80;;;11.40;99.90;;;;;;5035979;28;20038;-73
2023/04/08 10:35:46;;;;;;;28.23;18.75;;;11.50;99.90;;;;;;5020656;28;20487;-72
2023/04/08 10:38:13;;;;;;;30.00;19.90;;;11.60;99.90;;;;;;5019164;28;20155;-73
2023/04/08 10:40:41;;;;;;;33.88;20.23;;;11.60;99.90;;;;;;5026316;28;20390;-74
2023/04/08 10:43:11;;;;;;;29.63;18.58;;;11.70;99.90;;;;;;5026926;28;20112;-71
2023/04/08 10:45:38;;;;;;;30.65;19.90;;;11.80;99.90;;;;;;5026574;28;20055;-73
2023/04/08 10:48:21;;;;;;;27.73;19.25;;;11.80;99.90;;;;;;5037247;28;20029;-72
2023/04/08 10:51:04;;;;;;;30.20;19.08;;;11.80;99.60;;;;;;5016987;28;20055;-71
2023/04/08 10:53:30;;;;;;;25.70;18.00;;;11.80;99.50;;;;;;5033908;28;20521;-73
2023/04/08 10:56:07;;;;;;;28.05;19.38;;;11.80;99.50;;;;;;5025946;28;20029;-72
2023/04/08 10:58:34;;;;;;;26.90;19.88;;;11.80;99.50;;;;;;5014807;28;20030;-72
2023/04/08 11:01:06;;;;;;;27.95;19.48;;;11.90;99.50;;;;;;5022730;28;20053;-72
2023/04/08 11:03:33;;;;;;;29.30;16.80;;;12.00;99.50;;;;;;5021486;28;20026;-70
2023/04/08 11:05:59;;;;;;;24.40;17.45;;;12.20;99.50;;;;;;5020505;28;20029;-71
2023/04/08 11:08:32;;;;;;;26.10;17.48;;;12.20;99.10;;;;;;5026550;28;20452;-71
2023/04/08 11:11:00;;;;;;;27.83;18.02;;;12.30;99.00;;;;;;5025083;28;20456;-71
2023/04/08 11:13:29;;;;;;;25.83;17.30;;;12.30;98.90;;;;;;5026102;28;20112;-71
2023/04/08 11:15:57;;;;;;;22.42;16.88;;;12.30;98.60;;;;;;5043313;28;20120;-71
2023/04/08 11:18:23;;;;;;;23.65;17.20;;;12.20;98.10;;;;;;5022363;28;20030;-71
2023/04/08 11:20:53;;;;;;;23.52;16.92;;;12.20;98.20;;;;;;5024658;28;20037;-71
2023/04/08 11:23:18;;;;;;;25.55;17.13;;;12.20;98.10;;;;;;5031537;28;20026;-71
2023/04/08 11:25:46;;;;;;;27.92;19.33;;;12.20;98.30;;;;;;5024959;28;20018;-70
2023/04/08 11:28:13;;;;;;;25.38;17.75;;;12.20;98.00;;;;;;5016728;28;20029;-71
2023/04/08 11:30:39;;;;;;;26.38;17.95;;;12.20;97.90;;;;;;5022599;28;20091;-71
2023/04/08 11:33:06;;;;;;;23.88;15.73;;;12.10;98.10;;;;;;5019458;28;20366;-71
2023/04/08 11:35:32;;;;;;;26.60;17.10;;;12.20;98.00;;;;;;5027528;28;20029;-71
2023/04/08 11:37:58;;;;;;;22.45;16.05;;;12.20;98.00;;;;;;5024319;28;20159;-70
2023/04/08 11:40:25;;;;;;;22.42;15.73;;;12.20;97.80;;;;;;5012451;28;20160;-71
2023/04/08 11:42:51;;;;;;;24.23;16.80;;;12.30;97.70;;;;;;5014119;28;20038;-72
2023/04/08 11:45:20;;;;;;;23.15;15.63;;;12.40;97.70;;;;;;5021718;28;20029;-71
2023/04/08 11:47:47;;;;;;;19.52;13.57;;;12.40;97.50;;;;;;5035103;28;20393;-71
2023/04/08 11:50:24;;;;;;;20.95;13.55;;;12.40;97.40;;;;;;5028302;28;20134;-71
2023/04/08 11:52:51;;;;;;;20.45;13.63;;;12.50;97.00;;;;;;5030224;28;20131;-72
2023/04/08 11:55:24;;;;;;;20.58;14.23;;;12.50;96.60;;;;;;5013074;28;20022;-71
2023/04/08 11:57:51;;;;;;;19.27;13.30;;;12.40;96.60;;;;;;5032435;28;20072;-71
2023/04/08 12:00:17;;;;;;;20.98;13.80;;;12.40;96.70;;;;;;5026109;28;20045;-70
2023/04/08 12:02:43;;;;;;;16.20;11.57;;;12.50;96.80;;;;;;5029256;28;20504;-71
2023/04/08 12:05:09;;;;;;;18.30;12.45;;;12.70;96.90;;;;;;5021673;28;20037;-71
2023/04/08 12:07:35;;;;;;;18.08;11.80;;;12.80;96.80;;;;;;5011923;28;20030;-72
2023/04/08 12:10:01;;;;;;;16.65;12.43;;;13.00;96.70;;;;;;5027540;28;20465;-71
2023/04/08 12:12:26;;;;;;;15.60;10.82;;;13.10;96.20;;;;;;5026949;28;20453;-72
2023/04/08 12:14:52;;;;;;;16.58;10.75;;;13.20;96.30;;;;;;5031579;28;20037;-73
2023/04/08 12:17:18;;;;;;;13.90;10.80;;;13.40;96.30;;;;;;5018246;28;20040;-72
2023/04/08 12:19:44;;;;;;;12.95;9.80;;;13.40;95.70;;;;;;5017801;28;20088;-72
2023/04/08 12:22:09;;;;;;;14.48;10.93;;;13.50;95.40;;;;;;5019132;28;20101;-71
2023/04/08 12:24:35;;;;;;;15.27;11.48;;;13.50;94.90;;;;;;5018095;28;20030;-72
2023/04/08 12:27:02;;;;;;;14.93;12.18;;;13.40;94.50;;;;;;5022798;28;20524;-71
2023/04/08 12:29:28;;;;;;;16.08;12.40;;;13.40;94.80;;;;;;5018266;28;20482;-71
2023/04/08 12:31:53;;;;;;;18.63;12.68;;;13.20;94.60;;;;;;5023798;28;20042;-71
2023/04/08 12:34:19;;;;;;;15.05;11.10;;;13.20;94.50;;;;;;5024405;28;20030;-71